EZY12YX EGKK-LFML
Flight info
| Callsign | EZY12YX |
|---|---|
| Flight time | 1h 29m |
| Altitude | 33000 |
| Route | SFD Y47 BENBO L612 HAWKE UL612 VEULE DCT KOTAP DCT KETEX DCT KOTIS DCT KUKOR DCT UTUVA DCT LERGA |
| Aircraft | A319/M-SDE2E3FGIJ1RWXYZ/LB1 |
Departure
| Time | 2026-05-05 15:19 |
|---|---|
| Airport | London Gatwick Airport (EGKK) |
Arrival
| Time | 2026-05-05 16:48 |
|---|---|
| Airport | Marseille Provence Airport (LFML) |
| Time | Latitude | Longitude | Altitude | Speed | Heading |
|---|---|---|---|---|---|
| 2026-05-05 14:38 | 51.15817 | -0.17953 | 205 ft | 0 kts | 78° |
| 2026-05-05 15:07 | 51.15816 | -0.17959 | 217 ft | 3 kts | 79° |
| 2026-05-05 15:08 | 51.15813 | -0.18001 | 205 ft | 4 kts | 92° |
| 2026-05-05 15:08 | 51.15817 | -0.18043 | 210 ft | 4 kts | 112° |
| 2026-05-05 15:08 | 51.15831 | -0.18077 | 217 ft | 4 kts | 156° |
| 2026-05-05 15:08 | 51.15837 | -0.18081 | 215 ft | 0 kts | 167° |
| 2026-05-05 15:11 | 51.15836 | -0.18081 | 216 ft | 1 kts | 168° |
| 2026-05-05 15:11 | 51.15817 | -0.18074 | 212 ft | 5 kts | 168° |
| 2026-05-05 15:11 | 51.15768 | -0.18058 | 205 ft | 8 kts | 168° |
| 2026-05-05 15:12 | 51.15710 | -0.18046 | 210 ft | 8 kts | 190° |
| 2026-05-05 15:12 | 51.15680 | -0.18117 | 205 ft | 8 kts | 252° |
| 2026-05-05 15:12 | 51.15665 | -0.18210 | 205 ft | 9 kts | 257° |
| 2026-05-05 15:12 | 51.15651 | -0.18308 | 205 ft | 9 kts | 258° |
| 2026-05-05 15:13 | 51.15637 | -0.18419 | 205 ft | 12 kts | 258° |
| 2026-05-05 15:13 | 51.15618 | -0.18557 | 210 ft | 13 kts | 257° |
| 2026-05-05 15:13 | 51.15600 | -0.18689 | 210 ft | 11 kts | 258° |
| 2026-05-05 15:13 | 51.15573 | -0.18818 | 209 ft | 13 kts | 222° |
| 2026-05-05 15:14 | 51.15480 | -0.18807 | 205 ft | 15 kts | 167° |
| 2026-05-05 15:14 | 51.15373 | -0.18771 | 205 ft | 17 kts | 169° |
| 2026-05-05 15:14 | 51.15252 | -0.18728 | 211 ft | 19 kts | 167° |
| 2026-05-05 15:14 | 51.15133 | -0.18729 | 206 ft | 17 kts | 238° |
| 2026-05-05 15:15 | 51.15105 | -0.18926 | 205 ft | 20 kts | 258° |
| 2026-05-05 15:15 | 51.15075 | -0.19152 | 205 ft | 22 kts | 256° |
| 2026-05-05 15:15 | 51.14998 | -0.19268 | 207 ft | 14 kts | 168° |
| 2026-05-05 15:15 | 51.14950 | -0.19383 | 211 ft | 15 kts | 259° |
| 2026-05-05 15:16 | 51.14923 | -0.19574 | 209 ft | 19 kts | 256° |
| 2026-05-05 15:16 | 51.14891 | -0.19795 | 207 ft | 22 kts | 257° |
| 2026-05-05 15:16 | 51.14858 | -0.20049 | 205 ft | 25 kts | 258° |
| 2026-05-05 15:16 | 51.14818 | -0.20336 | 207 ft | 28 kts | 257° |
| 2026-05-05 15:17 | 51.14775 | -0.20633 | 205 ft | 25 kts | 256° |
| 2026-05-05 15:17 | 51.14677 | -0.20712 | 206 ft | 17 kts | 169° |
| 2026-05-05 15:17 | 51.14593 | -0.20675 | 217 ft | 5 kts | 130° |
| 2026-05-05 15:17 | 51.14592 | -0.20643 | 211 ft | 0 kts | 80° |
| 2026-05-05 15:18 | 51.14593 | -0.20634 | 210 ft | 2 kts | 79° |
| 2026-05-05 15:18 | 51.14593 | -0.20632 | 210 ft | 0 kts | 78° |
| 2026-05-05 15:18 | 51.14594 | -0.20626 | 209 ft | 3 kts | 78° |
| 2026-05-05 15:19 | 51.14640 | -0.20293 | 218 ft | 70 kts | 77° |
| 2026-05-05 15:19 | 51.14798 | -0.19149 | 209 ft | 137 kts | 78° |
| 2026-05-05 15:19 | 51.15034 | -0.17432 | 525 ft | 163 kts | 78° |
| 2026-05-05 15:19 | 51.15271 | -0.15693 | 1451 ft | 159 kts | 76° |
| 2026-05-05 15:20 | 51.15508 | -0.13966 | 2270 ft | 165 kts | 76° |
| 2026-05-05 15:20 | 51.15772 | -0.12073 | 2734 ft | 186 kts | 75° |
| 2026-05-05 15:20 | 51.16072 | -0.09923 | 3132 ft | 211 kts | 76° |
| 2026-05-05 15:20 | 51.16194 | -0.07520 | 3772 ft | 229 kts | 98° |
| 2026-05-05 15:21 | 51.15637 | -0.04957 | 3971 ft | 256 kts | 110° |
| 2026-05-05 15:21 | 51.14924 | -0.02329 | 4007 ft | 260 kts | 111° |
| 2026-05-05 15:21 | 51.14195 | 0.00307 | 4009 ft | 260 kts | 111° |
| 2026-05-05 15:21 | 51.13470 | 0.02901 | 4005 ft | 261 kts | 111° |
| 2026-05-05 15:22 | 51.12674 | 0.05533 | 3995 ft | 262 kts | 120° |
| 2026-05-05 15:22 | 51.11340 | 0.07527 | 4001 ft | 269 kts | 149° |
| 2026-05-05 15:22 | 51.09527 | 0.08314 | 4012 ft | 273 kts | 173° |
| 2026-05-05 15:22 | 51.07618 | 0.08487 | 4014 ft | 275 kts | 176° |
| 2026-05-05 15:23 | 51.05718 | 0.08598 | 4246 ft | 273 kts | 176° |
| 2026-05-05 15:23 | 51.03814 | 0.08702 | 4645 ft | 276 kts | 176° |
| 2026-05-05 15:23 | 51.01894 | 0.08822 | 5013 ft | 277 kts | 176° |
| 2026-05-05 15:23 | 50.99959 | 0.08945 | 5393 ft | 279 kts | 176° |
| 2026-05-05 15:24 | 50.98013 | 0.09077 | 5779 ft | 281 kts | 176° |
| 2026-05-05 15:24 | 50.96048 | 0.09219 | 5977 ft | 284 kts | 176° |
| 2026-05-05 15:24 | 50.94112 | 0.09364 | 6001 ft | 282 kts | 176° |
| 2026-05-05 15:24 | 50.92143 | 0.09503 | 5995 ft | 283 kts | 176° |
| 2026-05-05 15:25 | 50.90155 | 0.09650 | 6700 ft | 286 kts | 176° |
| 2026-05-05 15:25 | 50.88171 | 0.09816 | 7808 ft | 287 kts | 176° |
| 2026-05-05 15:25 | 50.86168 | 0.09995 | 8843 ft | 290 kts | 176° |
| 2026-05-05 15:25 | 50.84111 | 0.10189 | 9878 ft | 293 kts | 176° |
| 2026-05-05 15:26 | 50.82020 | 0.10391 | 10418 ft | 313 kts | 176° |
| 2026-05-05 15:26 | 50.79792 | 0.10595 | 11001 ft | 326 kts | 176° |
| 2026-05-05 15:26 | 50.77504 | 0.10788 | 11842 ft | 332 kts | 176° |
| 2026-05-05 15:26 | 50.75185 | 0.10945 | 12730 ft | 336 kts | 177° |
| 2026-05-05 15:27 | 50.72827 | 0.10950 | 13582 ft | 340 kts | 180° |
| 2026-05-05 15:27 | 50.70477 | 0.10841 | 14332 ft | 344 kts | 181° |
| 2026-05-05 15:27 | 50.68073 | 0.10679 | 15068 ft | 348 kts | 181° |
| 2026-05-05 15:27 | 50.65643 | 0.10500 | 15796 ft | 352 kts | 181° |
| 2026-05-05 15:28 | 50.63185 | 0.10327 | 16535 ft | 355 kts | 181° |
| 2026-05-05 15:28 | 50.60700 | 0.10167 | 17270 ft | 359 kts | 181° |
| 2026-05-05 15:28 | 50.58197 | 0.10031 | 17988 ft | 362 kts | 181° |
| 2026-05-05 15:28 | 50.55660 | 0.09907 | 18638 ft | 366 kts | 181° |
| 2026-05-05 15:29 | 50.53104 | 0.09790 | 19262 ft | 370 kts | 181° |
| 2026-05-05 15:29 | 50.50528 | 0.09673 | 19890 ft | 373 kts | 181° |
| 2026-05-05 15:29 | 50.47917 | 0.09550 | 20518 ft | 376 kts | 181° |
| 2026-05-05 15:29 | 50.45283 | 0.09421 | 21140 ft | 380 kts | 181° |
| 2026-05-05 15:30 | 50.42631 | 0.09289 | 21746 ft | 384 kts | 181° |
| 2026-05-05 15:30 | 50.39950 | 0.09365 | 22349 ft | 387 kts | 173° |
| 2026-05-05 15:30 | 50.37307 | 0.10211 | 22935 ft | 390 kts | 162° |
| 2026-05-05 15:30 | 50.34791 | 0.11836 | 23516 ft | 393 kts | 151° |
| 2026-05-05 15:31 | 50.32474 | 0.14120 | 24052 ft | 394 kts | 145° |
| 2026-05-05 15:31 | 50.30188 | 0.16501 | 24622 ft | 395 kts | 146° |
| 2026-05-05 15:31 | 50.27891 | 0.18870 | 25186 ft | 396 kts | 146° |
| 2026-05-05 15:31 | 50.25583 | 0.21232 | 25753 ft | 396 kts | 147° |
| 2026-05-05 15:32 | 50.23276 | 0.23582 | 26313 ft | 397 kts | 147° |
| 2026-05-05 15:32 | 50.20970 | 0.25930 | 26850 ft | 398 kts | 147° |
| 2026-05-05 15:32 | 50.18647 | 0.28306 | 27391 ft | 398 kts | 147° |
| 2026-05-05 15:32 | 50.16326 | 0.30688 | 27899 ft | 400 kts | 147° |
| 2026-05-05 15:33 | 50.13999 | 0.33079 | 28407 ft | 402 kts | 147° |
| 2026-05-05 15:33 | 50.11658 | 0.35488 | 28878 ft | 404 kts | 147° |
| 2026-05-05 15:33 | 50.09309 | 0.37906 | 29361 ft | 405 kts | 146° |
| 2026-05-05 15:33 | 50.06959 | 0.40323 | 29818 ft | 408 kts | 146° |
| 2026-05-05 15:34 | 50.04580 | 0.42766 | 30235 ft | 410 kts | 147° |
| 2026-05-05 15:34 | 50.02191 | 0.45214 | 30597 ft | 412 kts | 147° |
| 2026-05-05 15:34 | 49.99787 | 0.47667 | 30967 ft | 415 kts | 147° |
| 2026-05-05 15:34 | 49.97372 | 0.50122 | 31328 ft | 417 kts | 147° |
| 2026-05-05 15:35 | 49.94937 | 0.52593 | 31784 ft | 416 kts | 147° |
| 2026-05-05 15:35 | 49.92523 | 0.55047 | 32290 ft | 415 kts | 147° |
| 2026-05-05 15:35 | 49.90108 | 0.57500 | 32793 ft | 414 kts | 147° |
| 2026-05-05 15:35 | 49.87703 | 0.59937 | 33304 ft | 412 kts | 147° |
| 2026-05-05 15:36 | 49.85305 | 0.62366 | 33801 ft | 411 kts | 147° |
| 2026-05-05 15:36 | 49.82940 | 0.64855 | 34234 ft | 411 kts | 146° |
| 2026-05-05 15:36 | 49.80612 | 0.67421 | 34592 ft | 411 kts | 144° |
| 2026-05-05 15:36 | 49.78328 | 0.69998 | 34919 ft | 412 kts | 144° |
| 2026-05-05 15:37 | 49.75987 | 0.72653 | 35253 ft | 412 kts | 144° |
| 2026-05-05 15:37 | 49.73665 | 0.75271 | 35557 ft | 413 kts | 145° |
| 2026-05-05 15:37 | 49.71335 | 0.77874 | 35849 ft | 414 kts | 145° |
| 2026-05-05 15:37 | 49.68997 | 0.80462 | 36151 ft | 414 kts | 145° |
| 2026-05-05 15:38 | 49.66649 | 0.83042 | 36440 ft | 415 kts | 146° |
| 2026-05-05 15:38 | 49.64286 | 0.85630 | 36719 ft | 416 kts | 146° |
| 2026-05-05 15:38 | 49.61919 | 0.88222 | 36861 ft | 416 kts | 146° |
| 2026-05-05 15:39 | 49.57241 | 0.93352 | 36873 ft | 416 kts | 146° |
| 2026-05-05 15:39 | 49.52517 | 0.98503 | 36871 ft | 416 kts | 146° |
| 2026-05-05 15:40 | 49.47789 | 1.03663 | 36868 ft | 417 kts | 145° |
| 2026-05-05 15:40 | 49.43063 | 1.08813 | 36865 ft | 417 kts | 145° |
| 2026-05-05 15:41 | 49.38329 | 1.13960 | 36865 ft | 417 kts | 145° |
| 2026-05-05 15:41 | 49.33587 | 1.19095 | 36865 ft | 417 kts | 145° |
| 2026-05-05 15:42 | 49.28847 | 1.24208 | 36867 ft | 417 kts | 146° |
| 2026-05-05 15:42 | 49.24102 | 1.29309 | 36868 ft | 417 kts | 145° |
| 2026-05-05 15:43 | 49.19362 | 1.34416 | 36863 ft | 416 kts | 145° |
| 2026-05-05 15:43 | 49.14628 | 1.39498 | 36860 ft | 416 kts | 145° |
| 2026-05-05 15:44 | 49.09881 | 1.44573 | 36859 ft | 416 kts | 145° |
| 2026-05-05 15:44 | 49.05135 | 1.49633 | 36860 ft | 416 kts | 145° |
| 2026-05-05 15:45 | 49.00395 | 1.54677 | 36853 ft | 416 kts | 145° |
| 2026-05-05 15:45 | 48.95642 | 1.59726 | 36848 ft | 416 kts | 145° |
| 2026-05-05 15:46 | 48.90893 | 1.64766 | 36843 ft | 417 kts | 145° |
| 2026-05-05 15:46 | 48.86137 | 1.69797 | 36831 ft | 417 kts | 145° |
| 2026-05-05 15:47 | 48.81376 | 1.74812 | 36823 ft | 417 kts | 145° |
| 2026-05-05 15:47 | 48.76612 | 1.79827 | 36817 ft | 417 kts | 145° |
| 2026-05-05 15:48 | 48.71835 | 1.84846 | 36819 ft | 418 kts | 145° |
| 2026-05-05 15:48 | 48.67056 | 1.89857 | 36815 ft | 418 kts | 146° |
| 2026-05-05 15:49 | 48.62269 | 1.94861 | 36817 ft | 418 kts | 146° |
| 2026-05-05 15:49 | 48.57480 | 1.99865 | 36816 ft | 419 kts | 146° |
| 2026-05-05 15:50 | 48.52648 | 2.04885 | 36811 ft | 419 kts | 146° |
| 2026-05-05 15:50 | 48.47870 | 2.09829 | 36804 ft | 419 kts | 146° |
| 2026-05-05 15:51 | 48.43025 | 2.14845 | 36801 ft | 420 kts | 146° |
| 2026-05-05 15:51 | 48.38208 | 2.19825 | 36796 ft | 420 kts | 146° |
| 2026-05-05 15:52 | 48.33384 | 2.24793 | 36799 ft | 420 kts | 146° |
| 2026-05-05 15:52 | 48.28450 | 2.29496 | 36801 ft | 420 kts | 155° |
| 2026-05-05 15:53 | 48.22911 | 2.32170 | 36801 ft | 419 kts | 165° |
| 2026-05-05 15:53 | 48.17265 | 2.34402 | 36807 ft | 420 kts | 165° |
| 2026-05-05 15:54 | 48.11617 | 2.36690 | 36818 ft | 421 kts | 163° |
| 2026-05-05 15:54 | 48.06053 | 2.39406 | 36821 ft | 420 kts | 161° |
| 2026-05-05 15:55 | 48.00540 | 2.42291 | 36821 ft | 420 kts | 161° |
| 2026-05-05 15:55 | 47.95010 | 2.45110 | 36828 ft | 420 kts | 162° |
| 2026-05-05 15:56 | 47.89464 | 2.47854 | 36831 ft | 420 kts | 162° |
| 2026-05-05 15:56 | 47.83914 | 2.50568 | 36830 ft | 420 kts | 162° |
| 2026-05-05 15:57 | 47.78367 | 2.53290 | 36823 ft | 420 kts | 162° |
| 2026-05-05 15:57 | 47.72819 | 2.56026 | 36815 ft | 420 kts | 162° |
| 2026-05-05 15:58 | 47.67281 | 2.58750 | 36811 ft | 419 kts | 163° |
| 2026-05-05 15:58 | 47.61742 | 2.61454 | 36808 ft | 419 kts | 163° |
| 2026-05-05 15:59 | 47.56194 | 2.64166 | 36812 ft | 419 kts | 163° |
| 2026-05-05 15:59 | 47.50686 | 2.66848 | 36813 ft | 419 kts | 163° |
| 2026-05-05 16:00 | 47.46043 | 2.69103 | 36813 ft | 419 kts | 163° |
| 2026-05-05 16:00 | 47.39602 | 2.72235 | 36812 ft | 419 kts | 163° |
| 2026-05-05 16:01 | 47.34961 | 2.74491 | 36821 ft | 420 kts | 163° |
| 2026-05-05 16:01 | 47.29408 | 2.77174 | 36831 ft | 420 kts | 163° |
| 2026-05-05 16:02 | 47.23857 | 2.79834 | 36838 ft | 420 kts | 163° |
| 2026-05-05 16:02 | 47.18306 | 2.82501 | 36837 ft | 420 kts | 163° |
| 2026-05-05 16:03 | 47.12757 | 2.85171 | 36844 ft | 420 kts | 163° |
| 2026-05-05 16:03 | 47.07203 | 2.87828 | 36845 ft | 420 kts | 163° |
| 2026-05-05 16:04 | 47.01642 | 2.90478 | 36852 ft | 420 kts | 164° |
| 2026-05-05 16:04 | 46.96112 | 2.93131 | 36860 ft | 417 kts | 164° |
| 2026-05-05 16:05 | 46.90585 | 2.95759 | 36854 ft | 418 kts | 164° |
| 2026-05-05 16:05 | 46.85087 | 2.98352 | 36850 ft | 418 kts | 164° |
| 2026-05-05 16:06 | 46.79518 | 3.00986 | 36849 ft | 418 kts | 164° |
| 2026-05-05 16:06 | 46.73988 | 3.03607 | 36843 ft | 418 kts | 164° |
| 2026-05-05 16:07 | 46.68446 | 3.06220 | 36834 ft | 418 kts | 164° |
| 2026-05-05 16:07 | 46.62913 | 3.08825 | 36839 ft | 418 kts | 164° |
| 2026-05-05 16:08 | 46.57377 | 3.11420 | 36843 ft | 418 kts | 164° |
| 2026-05-05 16:08 | 46.51856 | 3.14052 | 36847 ft | 418 kts | 163° |
| 2026-05-05 16:09 | 46.46403 | 3.16983 | 36847 ft | 418 kts | 161° |
| 2026-05-05 16:09 | 46.40975 | 3.20013 | 36849 ft | 418 kts | 162° |
| 2026-05-05 16:10 | 46.35531 | 3.22980 | 36848 ft | 418 kts | 162° |
| 2026-05-05 16:10 | 46.30075 | 3.25895 | 36847 ft | 418 kts | 162° |
| 2026-05-05 16:11 | 46.24645 | 3.28785 | 36850 ft | 418 kts | 162° |
| 2026-05-05 16:12 | 46.13730 | 3.34600 | 36851 ft | 418 kts | 163° |
| 2026-05-05 16:13 | 46.12803 | 3.35093 | 36845 ft | 418 kts | 163° |
| 2026-05-05 16:14 | 46.10765 | 3.36000 | 36712 ft | 414 kts | 175° |
| 2026-05-05 16:14 | 46.05230 | 3.38274 | 36850 ft | 418 kts | 163° |
| 2026-05-05 16:15 | 45.94151 | 3.43505 | 36885 ft | 418 kts | 166° |
| 2026-05-05 16:16 | 45.83089 | 3.48594 | 36898 ft | 417 kts | 165° |
| 2026-05-05 16:17 | 45.74811 | 3.52461 | 36893 ft | 416 kts | 166° |
| 2026-05-05 16:18 | 45.66863 | 3.57588 | 36885 ft | 420 kts | 157° |
| 2026-05-05 16:18 | 45.61656 | 3.61375 | 36376 ft | 418 kts | 157° |
| 2026-05-05 16:19 | 45.59062 | 3.63262 | 36112 ft | 418 kts | 157° |
| 2026-05-05 16:19 | 45.56473 | 3.65137 | 35864 ft | 417 kts | 158° |
| 2026-05-05 16:19 | 45.51304 | 3.68872 | 35371 ft | 417 kts | 158° |
| 2026-05-05 16:20 | 45.46137 | 3.72598 | 34879 ft | 414 kts | 158° |
| 2026-05-05 16:20 | 45.41016 | 3.76278 | 34391 ft | 409 kts | 158° |
| 2026-05-05 16:21 | 45.35967 | 3.79920 | 33918 ft | 404 kts | 158° |
| 2026-05-05 16:22 | 45.28499 | 3.85272 | 33096 ft | 398 kts | 159° |
| 2026-05-05 16:22 | 45.23570 | 3.88757 | 32550 ft | 393 kts | 159° |
| 2026-05-05 16:23 | 45.18703 | 3.92180 | 32017 ft | 389 kts | 160° |
| 2026-05-05 16:23 | 45.16288 | 3.93875 | 31755 ft | 386 kts | 160° |
| 2026-05-05 16:23 | 45.11501 | 3.97230 | 31233 ft | 380 kts | 160° |
| 2026-05-05 16:24 | 45.09147 | 3.98884 | 30799 ft | 376 kts | 160° |
| 2026-05-05 16:24 | 45.06816 | 4.00524 | 30364 ft | 373 kts | 160° |
| 2026-05-05 16:24 | 45.02202 | 4.03759 | 29458 ft | 367 kts | 160° |
| 2026-05-05 16:25 | 44.99928 | 4.05351 | 29037 ft | 363 kts | 160° |
| 2026-05-05 16:25 | 44.95445 | 4.08481 | 28252 ft | 355 kts | 160° |
| 2026-05-05 16:25 | 44.93241 | 4.10013 | 27857 ft | 352 kts | 160° |
| 2026-05-05 16:26 | 44.88896 | 4.13045 | 27047 ft | 345 kts | 160° |
| 2026-05-05 16:26 | 44.84671 | 4.15990 | 26481 ft | 344 kts | 159° |
| 2026-05-05 16:27 | 44.82440 | 4.17519 | 26393 ft | 367 kts | 159° |
| 2026-05-05 16:27 | 44.80075 | 4.19134 | 26043 ft | 385 kts | 159° |
| 2026-05-05 16:27 | 44.77665 | 4.20794 | 25439 ft | 386 kts | 158° |
| 2026-05-05 16:27 | 44.75265 | 4.22463 | 24836 ft | 384 kts | 158° |
| 2026-05-05 16:28 | 44.72875 | 4.24128 | 24242 ft | 383 kts | 158° |
| 2026-05-05 16:28 | 44.70494 | 4.25786 | 23645 ft | 382 kts | 158° |
| 2026-05-05 16:28 | 44.68111 | 4.27439 | 23003 ft | 382 kts | 158° |
| 2026-05-05 16:28 | 44.65732 | 4.29086 | 22424 ft | 379 kts | 158° |
| 2026-05-05 16:29 | 44.63375 | 4.30715 | 21868 ft | 377 kts | 158° |
| 2026-05-05 16:29 | 44.61019 | 4.32338 | 21283 ft | 376 kts | 158° |
| 2026-05-05 16:29 | 44.58679 | 4.33947 | 20774 ft | 374 kts | 158° |
| 2026-05-05 16:29 | 44.56356 | 4.35543 | 20274 ft | 371 kts | 158° |
| 2026-05-05 16:30 | 44.54048 | 4.37127 | 19780 ft | 368 kts | 158° |
| 2026-05-05 16:30 | 44.51758 | 4.38696 | 19307 ft | 365 kts | 158° |
| 2026-05-05 16:30 | 44.49488 | 4.40250 | 18818 ft | 361 kts | 157° |
| 2026-05-05 16:30 | 44.47242 | 4.41786 | 18355 ft | 359 kts | 158° |
| 2026-05-05 16:31 | 44.45005 | 4.43314 | 17819 ft | 356 kts | 158° |
| 2026-05-05 16:31 | 44.42788 | 4.44829 | 17316 ft | 353 kts | 158° |
| 2026-05-05 16:31 | 44.40593 | 4.46330 | 16834 ft | 350 kts | 157° |
| 2026-05-05 16:31 | 44.38419 | 4.47818 | 16331 ft | 347 kts | 157° |
| 2026-05-05 16:32 | 44.36255 | 4.49297 | 15820 ft | 345 kts | 157° |
| 2026-05-05 16:32 | 44.34102 | 4.50767 | 15310 ft | 344 kts | 157° |
| 2026-05-05 16:32 | 44.31956 | 4.52231 | 14799 ft | 343 kts | 157° |
| 2026-05-05 16:32 | 44.29816 | 4.53689 | 14273 ft | 342 kts | 157° |
| 2026-05-05 16:33 | 44.27680 | 4.55141 | 13749 ft | 341 kts | 158° |
| 2026-05-05 16:33 | 44.25548 | 4.56587 | 13169 ft | 340 kts | 157° |
| 2026-05-05 16:33 | 44.23430 | 4.58024 | 12643 ft | 337 kts | 157° |
| 2026-05-05 16:33 | 44.21329 | 4.59449 | 12096 ft | 335 kts | 157° |
| 2026-05-05 16:34 | 44.19244 | 4.60860 | 11555 ft | 333 kts | 157° |
| 2026-05-05 16:34 | 44.17163 | 4.62268 | 11006 ft | 331 kts | 157° |
| 2026-05-05 16:34 | 44.15104 | 4.63663 | 10561 ft | 326 kts | 156° |
| 2026-05-05 16:34 | 44.13114 | 4.65016 | 10435 ft | 311 kts | 156° |
| 2026-05-05 16:35 | 44.11213 | 4.66308 | 10314 ft | 298 kts | 156° |
| 2026-05-05 16:35 | 44.09398 | 4.67570 | 10175 ft | 287 kts | 156° |
| 2026-05-05 16:35 | 44.07642 | 4.68823 | 9931 ft | 281 kts | 155° |
| 2026-05-05 16:35 | 44.05913 | 4.70067 | 9785 ft | 279 kts | 155° |
| 2026-05-05 16:36 | 44.04192 | 4.71303 | 9647 ft | 278 kts | 155° |
| 2026-05-05 16:36 | 44.02473 | 4.72532 | 9504 ft | 278 kts | 155° |
| 2026-05-05 16:36 | 44.00758 | 4.73755 | 9163 ft | 276 kts | 155° |
| 2026-05-05 16:36 | 43.99055 | 4.74971 | 8799 ft | 274 kts | 155° |
| 2026-05-05 16:37 | 43.97369 | 4.76173 | 8664 ft | 273 kts | 156° |
| 2026-05-05 16:37 | 43.95621 | 4.77167 | 8489 ft | 271 kts | 161° |
| 2026-05-05 16:37 | 43.93861 | 4.78109 | 8313 ft | 270 kts | 161° |
| 2026-05-05 16:37 | 43.92112 | 4.79052 | 8132 ft | 270 kts | 161° |
| 2026-05-05 16:38 | 43.90363 | 4.80000 | 7952 ft | 269 kts | 161° |
| 2026-05-05 16:38 | 43.88631 | 4.80938 | 7771 ft | 268 kts | 160° |
| 2026-05-05 16:38 | 43.86888 | 4.81880 | 7595 ft | 267 kts | 160° |
| 2026-05-05 16:38 | 43.85155 | 4.82810 | 7416 ft | 267 kts | 161° |
| 2026-05-05 16:39 | 43.83430 | 4.83735 | 7234 ft | 266 kts | 160° |
| 2026-05-05 16:39 | 43.81706 | 4.84660 | 7063 ft | 265 kts | 160° |
| 2026-05-05 16:39 | 43.79988 | 4.85584 | 6884 ft | 264 kts | 160° |
| 2026-05-05 16:39 | 43.78281 | 4.86523 | 6492 ft | 263 kts | 160° |
| 2026-05-05 16:40 | 43.76596 | 4.87469 | 6161 ft | 260 kts | 159° |
| 2026-05-05 16:40 | 43.74922 | 4.88416 | 5852 ft | 259 kts | 159° |
| 2026-05-05 16:40 | 43.73269 | 4.89353 | 5501 ft | 257 kts | 158° |
| 2026-05-05 16:40 | 43.71620 | 4.90285 | 5155 ft | 254 kts | 158° |
| 2026-05-05 16:41 | 43.70014 | 4.91195 | 5014 ft | 242 kts | 158° |
| 2026-05-05 16:41 | 43.68495 | 4.92065 | 4935 ft | 233 kts | 158° |
| 2026-05-05 16:41 | 43.66963 | 4.92941 | 4647 ft | 240 kts | 158° |
| 2026-05-05 16:41 | 43.65421 | 4.93819 | 4297 ft | 239 kts | 158° |
| 2026-05-05 16:42 | 43.63884 | 4.94693 | 4026 ft | 237 kts | 157° |
| 2026-05-05 16:42 | 43.62409 | 4.95532 | 3997 ft | 221 kts | 157° |
| 2026-05-05 16:42 | 43.61535 | 4.96162 | 3995 ft | 209 kts | 144° |
| 2026-05-05 16:42 | 43.60495 | 4.97449 | 4000 ft | 194 kts | 136° |
| 2026-05-05 16:43 | 43.59592 | 4.98732 | 4004 ft | 180 kts | 135° |
| 2026-05-05 16:43 | 43.58739 | 4.99955 | 3886 ft | 175 kts | 135° |
| 2026-05-05 16:43 | 43.57898 | 5.01161 | 3690 ft | 174 kts | 135° |
| 2026-05-05 16:43 | 43.57058 | 5.02365 | 3471 ft | 174 kts | 134° |
| 2026-05-05 16:44 | 43.56223 | 5.03562 | 3288 ft | 171 kts | 134° |
| 2026-05-05 16:44 | 43.55404 | 5.04736 | 3024 ft | 168 kts | 134° |
| 2026-05-05 16:44 | 43.54602 | 5.05885 | 2794 ft | 165 kts | 134° |
| 2026-05-05 16:44 | 43.53819 | 5.07006 | 2565 ft | 160 kts | 133° |
| 2026-05-05 16:45 | 43.53059 | 5.08094 | 2366 ft | 157 kts | 133° |
| 2026-05-05 16:45 | 43.52304 | 5.09174 | 2152 ft | 155 kts | 133° |
| 2026-05-05 16:45 | 43.51562 | 5.10236 | 1946 ft | 152 kts | 133° |
| 2026-05-05 16:45 | 43.50837 | 5.11273 | 1751 ft | 149 kts | 133° |
| 2026-05-05 16:46 | 43.50119 | 5.12298 | 1542 ft | 148 kts | 133° |
| 2026-05-05 16:46 | 43.49404 | 5.13320 | 1347 ft | 148 kts | 133° |
| 2026-05-05 16:46 | 43.48698 | 5.14329 | 1147 ft | 143 kts | 133° |
| 2026-05-05 16:46 | 43.48025 | 5.15298 | 974 ft | 138 kts | 134° |
| 2026-05-05 16:47 | 43.47345 | 5.16267 | 747 ft | 143 kts | 136° |
| 2026-05-05 16:47 | 43.46672 | 5.17239 | 557 ft | 139 kts | 136° |
| 2026-05-05 16:47 | 43.45996 | 5.18202 | 416 ft | 141 kts | 137° |
| 2026-05-05 16:47 | 43.45313 | 5.19178 | 242 ft | 143 kts | 139° |
| 2026-05-05 16:48 | 43.44633 | 5.20139 | 59 ft | 136 kts | 139° |
| 2026-05-05 16:48 | 43.44038 | 5.20970 | 36 ft | 105 kts | 133° |
| 2026-05-05 16:48 | 43.43648 | 5.21529 | 49 ft | 59 kts | 135° |
| 2026-05-05 16:48 | 43.43404 | 5.21869 | 54 ft | 40 kts | 134° |
| 2026-05-05 16:49 | 43.43333 | 5.22154 | 56 ft | 30 kts | 83° |
| 2026-05-05 16:49 | 43.43442 | 5.22260 | 52 ft | 23 kts | 333° |
| 2026-05-05 16:49 | 43.43575 | 5.22159 | 54 ft | 22 kts | 330° |
| 2026-05-05 16:49 | 43.43713 | 5.22051 | 48 ft | 24 kts | 325° |
| 2026-05-05 16:50 | 43.43821 | 5.22075 | 49 ft | 18 kts | 52° |
| 2026-05-05 16:50 | 43.43912 | 5.22144 | 48 ft | 15 kts | 310° |
| 2026-05-05 16:50 | 43.43992 | 5.22031 | 46 ft | 18 kts | 311° |
| 2026-05-05 16:50 | 43.44052 | 5.21999 | 44 ft | 7 kts | 49° |
| 2026-05-05 16:51 | 43.44103 | 5.22038 | 44 ft | 4 kts | 26° |
| 2026-05-05 16:51 | 43.44104 | 5.22038 | 44 ft | 0 kts | 26° |